createdAt,value
2023-02-22T00:01:19.579Z,40.56
2023-02-22T00:03:51.689Z,40.82
2023-02-22T00:06:23.482Z,41.00
2023-02-22T00:08:53.462Z,40.66
2023-02-22T00:11:21.873Z,40.93
2023-02-22T00:13:51.532Z,40.67
2023-02-22T00:16:23.791Z,40.80
2023-02-22T00:18:53.319Z,40.80
2023-02-22T00:21:22.619Z,41.10
2023-02-22T00:23:54.673Z,41.29
2023-02-22T00:26:24.131Z,41.38
2023-02-22T00:28:55.343Z,41.08
2023-02-22T00:31:27.354Z,41.09
2023-02-22T00:33:56.276Z,40.69
2023-02-22T00:36:25.149Z,40.89
2023-02-22T00:38:55.726Z,41.07
2023-02-22T00:41:24.465Z,41.15
2023-02-22T00:43:53.301Z,40.96
2023-02-22T00:46:21.837Z,41.34
2023-02-22T00:48:52.078Z,41.08
2023-02-22T00:51:20.606Z,41.11
2023-02-22T00:53:53.402Z,41.26
2023-02-22T00:56:22.175Z,41.31
2023-02-22T00:58:51.146Z,41.17
2023-02-22T01:01:20.854Z,41.03
2023-02-22T01:03:51.172Z,41.20
2023-02-22T01:06:20.097Z,42.09
2023-02-22T01:08:49.918Z,41.77
2023-02-22T01:11:19.342Z,41.36
2023-02-22T01:13:48.242Z,41.36
2023-02-22T01:16:16.814Z,41.66
2023-02-22T01:18:45.669Z,41.42
2023-02-22T01:21:15.934Z,41.63
2023-02-22T01:23:46.208Z,41.93
2023-02-22T01:26:14.718Z,42.46
2023-02-22T01:28:43.724Z,43.60
2023-02-22T01:31:12.661Z,44.01
2023-02-22T01:33:41.879Z,45.31
2023-02-22T01:36:11.567Z,46.00
2023-02-22T01:38:41.902Z,47.22
2023-02-22T01:41:10.852Z,49.11
2023-02-22T01:43:40.147Z,49.74
2023-02-22T01:46:22.197Z,49.67
2023-02-22T01:48:56.058Z,49.43
2023-02-22T01:51:30.295Z,50.28
2023-02-22T01:54:04.535Z,49.36
2023-02-22T01:56:38.974Z,48.95
2023-02-22T01:59:11.338Z,48.04
2023-02-22T02:01:44.766Z,48.03
2023-02-22T02:04:18.792Z,47.14
2023-02-22T02:06:49.067Z,47.15
2023-02-22T02:09:30.387Z,47.29
2023-02-22T02:12:02.754Z,46.96
2023-02-22T02:14:33.051Z,46.61
2023-02-22T02:17:02.550Z,45.92
2023-02-22T02:19:42.764Z,45.78
2023-02-22T02:22:34.602Z,45.80
2023-02-22T02:25:41.710Z,47.06
2023-02-22T02:28:47.195Z,46.47
2023-02-22T02:32:12.713Z,46.37
2023-02-22T02:34:50.572Z,45.94
2023-02-22T02:37:30.240Z,46.08
2023-02-22T02:40:04.780Z,46.36
2023-02-22T02:42:39.722Z,46.25
2023-02-22T02:45:15.493Z,45.71
2023-02-22T02:47:48.483Z,44.99
2023-02-22T02:50:24.281Z,45.48
2023-02-22T02:52:56.759Z,45.17
2023-02-22T02:55:25.900Z,45.02
2023-02-22T02:57:55.752Z,44.95
2023-02-22T03:00:29.987Z,45.33
2023-02-22T03:03:15.070Z,44.74
2023-02-22T03:06:07.124Z,44.37
2023-02-22T03:08:44.224Z,44.49
2023-02-22T03:11:19.436Z,44.20
2023-02-22T03:13:56.795Z,44.33
2023-02-22T03:16:34.326Z,44.33
2023-02-22T03:19:09.923Z,44.36
2023-02-22T03:21:49.084Z,44.06
2023-02-22T03:24:22.230Z,44.15
2023-02-22T03:26:58.038Z,44.30
2023-02-22T03:29:35.632Z,44.38
2023-02-22T03:32:11.683Z,44.13
2023-02-22T03:34:45.978Z,44.45
2023-02-22T03:37:22.050Z,44.44
2023-02-22T03:39:55.507Z,44.27
2023-02-22T03:42:30.282Z,44.54
2023-02-22T03:45:04.679Z,44.11
2023-02-22T03:47:41.552Z,44.32
2023-02-22T03:50:15.333Z,44.88
2023-02-22T03:52:47.530Z,44.59
2023-02-22T03:55:24.325Z,44.54
2023-02-22T03:57:57.991Z,44.40
2023-02-22T04:00:30.787Z,44.58
2023-02-22T04:02:59.928Z,44.89
2023-02-22T04:05:28.931Z,44.74
2023-02-22T04:08:00.309Z,45.25
2023-02-22T04:10:29.709Z,44.95
2023-02-22T04:12:58.884Z,44.98
2023-02-22T04:15:28.018Z,45.24
2023-02-22T04:18:03.773Z,45.57
2023-02-22T04:20:34.905Z,45.95
2023-02-22T04:23:13.209Z,45.64
2023-02-22T04:25:43.778Z,45.23
2023-02-22T04:28:18.236Z,45.94
2023-02-22T04:30:55.126Z,45.77
2023-02-22T04:33:25.115Z,45.47
2023-02-22T04:35:54.055Z,45.81
2023-02-22T04:38:25.995Z,46.25
2023-02-22T04:40:57.028Z,46.29
2023-02-22T04:43:25.653Z,46.10
2023-02-22T04:45:59.249Z,46.44
2023-02-22T04:48:27.873Z,46.44
2023-02-22T04:50:56.790Z,46.33
2023-02-22T04:53:27.680Z,46.10
2023-02-22T04:55:58.153Z,45.82
2023-02-22T04:58:26.842Z,46.61
2023-02-22T05:00:55.755Z,46.31
2023-02-22T05:03:24.245Z,45.76
2023-02-22T05:05:53.537Z,46.30
2023-02-22T05:08:22.151Z,45.96
2023-02-22T05:10:52.572Z,46.20
2023-02-22T05:13:21.375Z,46.67
2023-02-22T05:15:50.174Z,45.95
2023-02-22T05:18:18.916Z,46.76
2023-02-22T05:20:47.680Z,46.44
2023-02-22T05:23:16.155Z,46.32
2023-02-22T05:25:46.029Z,46.46
2023-02-22T05:28:17.252Z,46.20
2023-02-22T05:30:46.322Z,46.29
2023-02-22T05:33:16.043Z,46.56
2023-02-22T05:35:46.316Z,45.92
2023-02-22T05:38:16.090Z,45.93
2023-02-22T05:40:45.095Z,46.56
2023-02-22T05:43:15.761Z,46.07
2023-02-22T05:45:44.795Z,45.92
2023-02-22T05:48:13.436Z,46.26
2023-02-22T05:50:44.096Z,45.78
2023-02-22T05:53:13.364Z,45.91
2023-02-22T05:55:42.322Z,46.52
2023-02-22T05:58:10.747Z,46.18
2023-02-22T06:00:41.043Z,45.92
2023-02-22T06:03:12.578Z,46.04
2023-02-22T06:05:42.790Z,45.92
2023-02-22T06:08:11.605Z,45.68
2023-02-22T06:10:40.580Z,45.81
2023-02-22T06:13:09.269Z,45.57
2023-02-22T06:15:38.186Z,45.72
2023-02-22T06:18:08.014Z,45.51
2023-02-22T06:20:37.024Z,45.70
2023-02-22T06:23:05.844Z,45.41
2023-02-22T06:25:34.624Z,45.47
2023-02-22T06:28:03.403Z,45.13
2023-02-22T06:30:32.445Z,45.08
2023-02-22T06:33:00.868Z,45.22
2023-02-22T06:35:31.161Z,44.87
2023-02-22T06:37:59.807Z,44.81
2023-02-22T06:40:29.580Z,44.80
2023-02-22T06:42:59.869Z,44.65
2023-02-22T06:45:30.216Z,44.31
2023-02-22T06:47:58.740Z,44.08
2023-02-22T06:50:30.682Z,44.15
2023-02-22T06:52:59.922Z,43.91
2023-02-22T06:55:31.826Z,43.93
2023-02-22T06:58:00.796Z,43.89
2023-02-22T07:00:32.211Z,43.56
2023-02-22T07:03:01.439Z,43.28
2023-02-22T07:05:31.780Z,43.16
2023-02-22T07:08:06.174Z,43.04
2023-02-22T07:10:37.130Z,42.77
2023-02-22T07:13:07.591Z,42.49
2023-02-22T07:15:37.320Z,42.79
2023-02-22T07:18:05.842Z,42.40
2023-02-22T07:20:36.346Z,42.24
2023-02-22T07:23:05.855Z,41.98
2023-02-22T07:25:34.696Z,41.79
2023-02-22T07:28:03.182Z,41.69
2023-02-22T07:30:34.388Z,41.24
2023-02-22T07:33:06.079Z,40.96
2023-02-22T07:35:37.917Z,41.30
2023-02-22T07:38:08.562Z,40.50
2023-02-22T07:40:39.082Z,40.48
2023-02-22T07:43:16.802Z,40.14
2023-02-22T07:45:48.127Z,39.97
2023-02-22T07:48:18.558Z,39.70
2023-02-22T07:50:49.437Z,39.78
2023-02-22T07:53:20.637Z,39.99
2023-02-22T07:55:51.150Z,39.41
2023-02-22T07:58:21.505Z,40.26
2023-02-22T08:00:50.327Z,39.94
2023-02-22T08:03:21.305Z,39.72
2023-02-22T08:05:53.933Z,39.71
2023-02-22T08:08:23.014Z,39.67
2023-02-22T08:10:53.425Z,39.75
2023-02-22T08:13:23.258Z,39.76
2023-02-22T08:15:53.947Z,39.51
2023-02-22T08:18:23.667Z,40.42
2023-02-22T08:20:55.071Z,39.49
2023-02-22T08:23:27.168Z,39.54
2023-02-22T08:25:56.057Z,38.83
2023-02-22T08:28:25.754Z,38.34
2023-02-22T08:30:54.906Z,38.02
2023-02-22T08:33:23.830Z,37.99
2023-02-22T08:35:54.445Z,37.30
2023-02-22T08:38:25.803Z,37.22
2023-02-22T08:40:55.488Z,37.16
2023-02-22T08:43:25.165Z,37.65
2023-02-22T08:45:57.217Z,37.54
2023-02-22T08:48:26.185Z,39.34
2023-02-22T08:50:56.714Z,39.87
2023-02-22T08:53:25.223Z,40.31
2023-02-22T08:55:54.403Z,40.81
2023-02-22T08:58:22.980Z,40.16
2023-02-22T09:00:52.227Z,39.58
2023-02-22T09:03:20.807Z,38.73
2023-02-22T09:05:49.978Z,41.13
2023-02-22T09:08:19.851Z,42.13
2023-02-22T09:10:48.628Z,42.25
2023-02-22T09:13:17.072Z,40.95
2023-02-22T09:15:46.337Z,41.34
2023-02-22T09:18:18.130Z,40.12
2023-02-22T09:20:46.974Z,40.51
2023-02-22T09:23:15.485Z,40.42
2023-02-22T09:25:45.633Z,39.75
2023-02-22T09:28:14.581Z,39.85
2023-02-22T09:30:44.420Z,40.08
2023-02-22T09:33:15.202Z,39.41
2023-02-22T09:35:46.722Z,39.14
2023-02-22T09:38:17.847Z,39.47
2023-02-22T09:40:51.891Z,39.93
2023-02-22T09:43:35.771Z,39.78
2023-02-22T09:46:13.863Z,40.86
2023-02-22T09:48:57.901Z,40.47
2023-02-22T09:51:32.015Z,40.72
2023-02-22T09:54:03.360Z,40.70
2023-02-22T09:56:35.151Z,39.83
2023-02-22T09:59:07.938Z,38.73
2023-02-22T10:01:43.524Z,38.44
2023-02-22T10:04:19.655Z,38.12
2023-02-22T10:07:06.878Z,37.89
2023-02-22T10:09:42.780Z,37.63
2023-02-22T10:12:21.576Z,38.23
2023-02-22T10:15:18.566Z,38.75
2023-02-22T10:17:53.910Z,37.71
2023-02-22T10:20:37.837Z,38.83
2023-02-22T10:23:18.148Z,41.36
2023-02-22T10:25:53.957Z,40.45
2023-02-22T10:28:31.036Z,39.59
2023-02-22T10:31:05.276Z,38.96
2023-02-22T10:33:39.778Z,38.50
2023-02-22T10:36:19.322Z,39.00
2023-02-22T10:38:55.447Z,38.36
2023-02-22T10:41:30.395Z,39.35
2023-02-22T10:44:00.909Z,40.10
2023-02-22T10:46:32.854Z,39.12
2023-02-22T10:49:07.472Z,39.98
2023-02-22T10:51:36.703Z,40.21
2023-02-22T10:54:26.711Z,39.72
2023-02-22T10:56:57.438Z,39.97
2023-02-22T10:59:34.469Z,39.64
2023-02-22T11:02:17.928Z,39.63
2023-02-22T11:04:49.779Z,39.55
2023-02-22T11:07:24.034Z,39.08
2023-02-22T11:09:55.955Z,38.76
2023-02-22T11:12:30.463Z,38.07
2023-02-22T11:15:29.596Z,37.51
2023-02-22T11:18:01.935Z,38.81
2023-02-22T11:20:36.016Z,38.30
2023-02-22T11:23:08.302Z,37.86
2023-02-22T11:25:42.324Z,37.54
2023-02-22T11:28:14.995Z,38.60
2023-02-22T11:30:53.560Z,38.37
2023-02-22T11:33:24.899Z,37.83
2023-02-22T11:35:55.753Z,37.19
2023-02-22T11:38:26.812Z,37.50
2023-02-22T11:41:09.265Z,37.85
2023-02-22T11:43:38.128Z,37.71
2023-02-22T11:46:13.823Z,37.51
2023-02-22T11:48:55.116Z,37.10
2023-02-22T11:51:39.399Z,36.93
2023-02-22T11:54:36.489Z,37.18
2023-02-22T11:57:17.176Z,36.42
2023-02-22T12:00:02.093Z,36.30
2023-02-22T12:03:01.386Z,35.30
2023-02-22T12:05:44.291Z,35.00
2023-02-22T12:08:26.987Z,34.92
2023-02-22T12:11:10.173Z,35.80
2023-02-22T12:13:53.574Z,35.61
2023-02-22T12:16:29.937Z,35.41
2023-02-22T12:19:16.382Z,36.47
2023-02-22T12:21:52.035Z,37.18
2023-02-22T12:24:24.723Z,38.10
2023-02-22T12:27:01.648Z,37.44
2023-02-22T12:29:37.824Z,36.80
2023-02-22T12:32:12.808Z,36.68
2023-02-22T12:34:47.264Z,35.88
2023-02-22T12:37:21.458Z,36.44
2023-02-22T12:40:00.167Z,38.18
2023-02-22T12:42:36.467Z,38.78
2023-02-22T12:45:16.957Z,39.07
2023-02-22T12:47:55.806Z,38.38
2023-02-22T12:50:34.513Z,38.64
2023-02-22T12:53:14.086Z,38.53
2023-02-22T12:55:48.846Z,38.77
2023-02-22T12:58:25.971Z,39.44
2023-02-22T13:01:02.302Z,39.77
2023-02-22T13:03:37.293Z,39.05
2023-02-22T13:06:25.890Z,37.93
2023-02-22T13:09:12.332Z,37.98
2023-02-22T13:11:48.088Z,38.18
2023-02-22T13:14:32.627Z,38.04
2023-02-22T13:17:08.147Z,38.76
2023-02-22T13:19:48.267Z,38.90
2023-02-22T13:22:25.590Z,38.71
2023-02-22T13:25:03.357Z,38.03
2023-02-22T13:27:41.547Z,37.32
2023-02-22T13:30:20.906Z,36.65
2023-02-22T13:33:18.119Z,36.01
2023-02-22T13:36:15.334Z,35.24
2023-02-22T13:39:18.375Z,34.90
2023-02-22T13:42:19.600Z,34.53
2023-02-22T13:45:18.657Z,34.09
2023-02-22T13:48:10.871Z,33.91
2023-02-22T13:51:07.784Z,33.55
2023-02-22T13:53:44.916Z,33.67
2023-02-22T13:56:16.639Z,33.47
2023-02-22T13:58:56.802Z,35.48
2023-02-22T14:01:39.987Z,35.29
2023-02-22T14:04:37.250Z,35.11
2023-02-22T14:07:57.004Z,35.02
2023-02-22T14:10:50.533Z,34.43
2023-02-22T14:13:22.655Z,34.10
2023-02-22T14:16:17.881Z,33.98
2023-02-22T14:18:50.505Z,33.48
2023-02-22T14:21:21.448Z,33.31
2023-02-22T14:23:52.284Z,33.46
2023-02-22T14:26:25.883Z,33.30
2023-02-22T14:29:01.582Z,33.08
2023-02-22T14:31:37.373Z,33.04
2023-02-22T14:34:10.533Z,33.25
2023-02-22T14:36:53.194Z,33.12
2023-02-22T14:39:32.117Z,33.16
2023-02-22T14:42:06.524Z,33.16
2023-02-22T14:44:43.252Z,33.08
2023-02-22T14:47:21.015Z,33.16
2023-02-22T14:49:54.870Z,33.48
2023-02-22T14:52:27.999Z,33.61
2023-02-22T14:55:04.632Z,33.85
2023-02-22T14:57:44.763Z,33.98
2023-02-22T15:00:30.698Z,34.08
2023-02-22T15:03:00.805Z,34.00
2023-02-22T15:05:38.419Z,34.31
2023-02-22T15:08:09.442Z,34.27
2023-02-22T15:10:43.912Z,34.40
2023-02-22T15:13:19.405Z,34.66
2023-02-22T15:15:55.637Z,34.60
2023-02-22T15:18:30.213Z,34.75
2023-02-22T15:21:06.812Z,34.81
2023-02-22T15:23:47.041Z,34.90
2023-02-22T15:26:21.735Z,34.93
2023-02-22T15:28:55.703Z,34.81
2023-02-22T15:31:30.985Z,34.78
2023-02-22T15:34:11.232Z,35.04
2023-02-22T15:36:40.217Z,35.17
2023-02-22T15:39:20.672Z,35.34
2023-02-22T15:41:49.735Z,35.26
2023-02-22T15:44:23.580Z,35.22
2023-02-22T15:46:56.698Z,35.24
2023-02-22T15:49:25.900Z,35.18
2023-02-22T15:52:08.101Z,34.97
2023-02-22T15:54:43.891Z,34.93
2023-02-22T15:57:17.224Z,34.92
2023-02-22T15:59:51.628Z,34.94
2023-02-22T16:02:41.740Z,35.43
2023-02-22T16:05:13.184Z,35.77
2023-02-22T16:07:46.112Z,36.19
2023-02-22T16:10:28.673Z,36.13
2023-02-22T16:13:14.421Z,35.93
2023-02-22T16:15:56.070Z,36.14
2023-02-22T16:18:31.269Z,36.07
2023-02-22T16:21:02.216Z,36.14
2023-02-22T16:23:33.631Z,36.16
2023-02-22T16:26:08.156Z,36.16
2023-02-22T16:28:37.038Z,36.20
2023-02-22T16:31:05.857Z,36.43
2023-02-22T16:33:36.231Z,36.69
2023-02-22T16:36:08.186Z,36.80
2023-02-22T16:38:39.654Z,37.06
2023-02-22T16:41:08.753Z,36.83
2023-02-22T16:43:38.545Z,36.99
2023-02-22T16:46:07.769Z,37.13
2023-02-22T16:48:38.631Z,37.24
2023-02-22T16:51:18.353Z,37.55
2023-02-22T16:53:49.029Z,37.91
2023-02-22T16:56:20.299Z,37.68
2023-02-22T16:58:53.030Z,37.90
2023-02-22T17:01:23.411Z,37.71
2023-02-22T17:03:54.928Z,38.02
2023-02-22T17:06:23.546Z,37.88
2023-02-22T17:08:52.683Z,37.90
2023-02-22T17:11:21.693Z,37.68
2023-02-22T17:13:51.924Z,37.95
2023-02-22T17:16:20.988Z,37.97
2023-02-22T17:18:50.284Z,38.00
2023-02-22T17:21:20.314Z,38.13
2023-02-22T17:23:49.239Z,38.47
2023-02-22T17:26:19.167Z,37.99
2023-02-22T17:28:48.372Z,38.42
2023-02-22T17:31:22.950Z,38.62
2023-02-22T17:33:52.568Z,38.45
2023-02-22T17:36:23.625Z,38.69
2023-02-22T17:38:53.302Z,38.50
2023-02-22T17:41:22.676Z,38.84
2023-02-22T17:43:51.866Z,38.65
2023-02-22T17:46:20.691Z,38.49
2023-02-22T17:48:49.729Z,38.92
2023-02-22T17:51:18.367Z,38.82
2023-02-22T17:53:48.974Z,38.83
2023-02-22T17:56:20.296Z,39.29
2023-02-22T17:58:53.321Z,38.96
2023-02-22T18:01:25.294Z,39.10
2023-02-22T18:03:55.807Z,39.50
2023-02-22T18:06:27.263Z,39.27
2023-02-22T18:08:59.295Z,39.04
2023-02-22T18:11:32.619Z,39.24
2023-02-22T18:14:01.633Z,38.88
2023-02-22T18:16:30.656Z,39.21
2023-02-22T18:19:01.791Z,39.28
2023-02-22T18:21:30.422Z,39.58
2023-02-22T18:24:00.801Z,39.52
2023-02-22T18:26:29.754Z,39.83
2023-02-22T18:29:00.528Z,39.79
2023-02-22T18:31:29.328Z,40.22
2023-02-22T18:33:58.647Z,39.89
2023-02-22T18:36:27.271Z,40.00
2023-02-22T18:38:56.540Z,39.68
2023-02-22T18:41:26.655Z,40.03
2023-02-22T18:43:59.069Z,40.15
2023-02-22T18:46:30.044Z,40.48
2023-02-22T18:48:59.610Z,40.40
2023-02-22T18:51:29.893Z,40.27
2023-02-22T18:54:01.055Z,40.61
2023-02-22T18:56:31.240Z,40.49
2023-02-22T18:59:02.128Z,40.31
2023-02-22T19:01:35.750Z,40.42
2023-02-22T19:04:04.629Z,40.54
2023-02-22T19:06:34.984Z,40.16
2023-02-22T19:09:08.610Z,40.73
2023-02-22T19:11:40.558Z,40.78
2023-02-22T19:14:09.789Z,40.63
2023-02-22T19:16:38.770Z,40.79
2023-02-22T19:19:07.692Z,41.06
2023-02-22T19:21:36.616Z,40.81
2023-02-22T19:24:06.050Z,40.48
2023-02-22T19:26:34.896Z,40.97
2023-02-22T19:29:08.623Z,41.27
2023-02-22T19:31:38.399Z,41.00
2023-02-22T19:34:10.179Z,41.15
2023-02-22T19:36:39.917Z,40.92
2023-02-22T19:39:09.497Z,41.24
2023-02-22T19:41:38.802Z,41.33
2023-02-22T19:44:09.362Z,41.33
2023-02-22T19:46:38.348Z,40.92
2023-02-22T19:49:08.164Z,40.50
2023-02-22T19:51:37.585Z,40.52
2023-02-22T19:54:09.760Z,40.42
2023-02-22T19:56:39.733Z,40.56
2023-02-22T19:59:13.759Z,40.36
2023-02-22T20:01:44.811Z,40.52
2023-02-22T20:04:18.283Z,40.24
2023-02-22T20:06:48.582Z,40.24
2023-02-22T20:09:19.796Z,40.76
2023-02-22T20:11:49.777Z,40.59
2023-02-22T20:14:23.487Z,40.09
2023-02-22T20:16:52.902Z,40.23
2023-02-22T20:19:22.673Z,40.43
2023-02-22T20:21:52.412Z,40.23
2023-02-22T20:24:21.468Z,40.23
2023-02-22T20:26:50.563Z,40.38
2023-02-22T20:29:21.380Z,40.16
2023-02-22T20:31:53.694Z,40.42
2023-02-22T20:34:25.109Z,40.04
2023-02-22T20:36:54.696Z,40.17
2023-02-22T20:39:23.482Z,40.08
2023-02-22T20:41:52.649Z,40.32
2023-02-22T20:44:23.334Z,40.32
2023-02-22T20:46:51.934Z,40.54
2023-02-22T20:49:21.533Z,40.56
2023-02-22T20:51:50.779Z,40.44
2023-02-22T20:54:19.740Z,40.27
2023-02-22T20:56:49.529Z,40.89
2023-02-22T20:59:20.454Z,40.80
2023-02-22T21:01:53.070Z,40.53
2023-02-22T21:04:23.365Z,40.98
2023-02-22T21:06:53.097Z,40.75
2023-02-22T21:09:22.533Z,40.90
2023-02-22T21:11:51.514Z,41.31
2023-02-22T21:14:20.685Z,41.39
2023-02-22T21:16:52.841Z,41.40
2023-02-22T21:19:26.312Z,42.18
2023-02-22T21:21:56.605Z,41.95
2023-02-22T21:24:26.881Z,42.36
2023-02-22T21:26:58.617Z,42.39
2023-02-22T21:29:28.492Z,42.21
2023-02-22T21:31:58.569Z,42.38
2023-02-22T21:34:27.635Z,42.08
2023-02-22T21:36:56.883Z,41.93
2023-02-22T21:39:28.687Z,41.99
2023-02-22T21:42:00.587Z,42.19
2023-02-22T21:44:30.375Z,42.33
2023-02-22T21:47:00.334Z,42.49
2023-02-22T21:49:29.426Z,42.55
2023-02-22T21:51:58.136Z,42.26
2023-02-22T21:54:28.045Z,42.30
2023-02-22T21:56:56.617Z,42.76
2023-02-22T21:59:25.794Z,42.90
2023-02-22T22:01:56.651Z,42.79
2023-02-22T22:04:29.622Z,43.03
2023-02-22T22:06:59.881Z,43.08
2023-02-22T22:09:33.275Z,43.05
2023-02-22T22:12:05.198Z,43.43
2023-02-22T22:14:35.664Z,43.15
2023-02-22T22:17:07.905Z,43.23
2023-02-22T22:19:40.559Z,43.42
2023-02-22T22:22:09.933Z,42.99
2023-02-22T22:24:41.539Z,43.02
2023-02-22T22:27:13.007Z,42.82
2023-02-22T22:29:43.681Z,42.71
2023-02-22T22:32:12.531Z,42.59
2023-02-22T22:34:43.622Z,42.63
2023-02-22T22:37:13.255Z,42.97
2023-02-22T22:39:42.512Z,43.08
2023-02-22T22:42:11.273Z,42.73
2023-02-22T22:44:42.217Z,42.38
2023-02-22T22:47:12.511Z,42.34
2023-02-22T22:49:43.001Z,42.29
2023-02-22T22:52:14.018Z,41.81
2023-02-22T22:54:43.828Z,42.40
2023-02-22T22:57:12.813Z,42.07
2023-02-22T22:59:41.792Z,41.92
2023-02-22T23:02:11.512Z,42.22
2023-02-22T23:04:42.161Z,41.73
2023-02-22T23:07:10.981Z,41.89
2023-02-22T23:09:40.508Z,42.25
2023-02-22T23:12:09.830Z,41.70
2023-02-22T23:14:44.028Z,41.66
2023-02-22T23:17:16.127Z,41.96
2023-02-22T23:19:46.665Z,41.88
2023-02-22T23:22:15.498Z,41.64
2023-02-22T23:24:45.550Z,41.81
2023-02-22T23:27:14.544Z,41.44
2023-02-22T23:29:46.812Z,41.41
2023-02-22T23:32:15.876Z,41.16
2023-02-22T23:34:49.655Z,41.02
2023-02-22T23:37:20.806Z,40.96
2023-02-22T23:39:50.939Z,41.42
2023-02-22T23:42:19.931Z,41.53
2023-02-22T23:44:49.363Z,41.42
2023-02-22T23:47:17.857Z,41.11
2023-02-22T23:49:49.628Z,41.43
2023-02-22T23:52:24.101Z,41.55
2023-02-22T23:54:54.090Z,41.71
2023-02-22T23:57:24.710Z,41.70
2023-02-22T23:59:53.579Z,41.87
